Mississagi — CFG8050 — position and weather

sailwx.info

Track history (hours):
 
Tides and Currents Weather Stations Pressure Air Temp Water Temp Dewpoint Dewpoint Depression Visibility Wind Speed Wind Dir Waves Ship Positions

Mississagi

Last reported at 2018-Jun-20 13:22 UTC. Time now 2018-Jun-21 06:49 UTC.
Position N 44°60' W 085°59'.

Length 189 m; draft 7 m.

Type: Cargo ship. MMSI: 316004940.

Date/timePositionNaut miles runAvg speedWind from/ knotsBaromVisibWave heightAir tempDewpointWater temp
2018-Jun-20 13:22N 44°60' W 085°59'2311.5
2018-Jun-20 11:21N 45°18' W 085°39'411.6
2018-Jun-20 11:00N 45°22' W 085°36'611.6
2018-Jun-20 10:30N 45°26' W 085°31'611.6
2018-Jun-20 10:00N 45°31' W 085°26'611.5
2018-Jun-20 09:30N 45°36' W 085°21'611.6
2018-Jun-20 09:00N 45°40' W 085°16'611.6
2018-Jun-20 08:30N 45°45' W 085°11'510.4
2018-Jun-20 08:00N 45°50' W 085°08'611.4
2018-Jun-20 07:30N 45°50' W 084°60'611.8
2018-Jun-20 07:00N 45°49' W 084°51'611.8
2018-Jun-20 06:30N 45°49' W 084°43'611.4
2018-Jun-20 06:00N 45°51' W 084°35'611.7
2018-Jun-20 05:30N 45°51' W 084°27'711.8
2018-Jun-20 04:56N 45°51' W 084°17'44 3.5
2018-Jun-19 16:16N 45°46' W 083°14'412.7
2018-Jun-19 15:58N 45°42' W 083°13'612.6
2018-Jun-19 15:30N 45°36' W 083°13'612.5
2018-Jun-19 15:00N 45°30' W 083°12'612.4
2018-Jun-19 14:30N 45°24' W 083°10'  
2018-Jun-16 02:49N 45°51' W 084°32'412.2
2018-Jun-16 02:30N 45°50' W 084°38'612.0
2018-Jun-16 01:59N 45°49' W 084°46'612.1
2018-Jun-16 01:30N 45°50' W 084°55'612.2
2018-Jun-16 01:00N 45°50' W 085°03'5 9.5
2018-Jun-16 00:30N 45°47' W 085°09'611.8
2018-Jun-16 00:00N 45°42' W 085°14'612.4
2018-Jun-15 23:30N 45°37' W 085°19'612.2
2018-Jun-15 23:00N 45°32' W 085°25'612.2
2018-Jun-15 22:30N 45°27' W 085°30'612.4
2018-Jun-15 22:00N 45°22' W 085°35'612.2
2018-Jun-15 21:30N 45°18' W 085°40'712.3
2018-Jun-15 20:56N 45°12' W 085°46'512.2
2018-Jun-15 20:30N 45°08' W 085°51'812.1
2018-Jun-15 19:50N 45°01' W 085°57'  
2018-Jun-11 18:46N 44°60' W 085°59'2211.7
2018-Jun-11 16:52N 45°18' W 085°40'411.8
2018-Jun-11 16:30N 45°21' W 085°36'611.8
2018-Jun-11 16:00N 45°26' W 085°31'611.7
2018-Jun-11 15:30N 45°31' W 085°26'611.7
2018-Jun-11 15:00N 45°35' W 085°21'611.6
2018-Jun-11 14:30N 45°40' W 085°16'611.6
2018-Jun-11 14:00N 45°44' W 085°11'3 6.7
2018-Jun-11 13:30N 45°47' W 085°09'4 8.8
2018-Jun-11 13:00N 45°50' W 085°04'611.6
2018-Jun-11 12:30N 45°50' W 084°55'611.6
2018-Jun-11 12:00N 45°49' W 084°47'510.9
2018-Jun-11 11:30N 45°50' W 084°39'611.4
2018-Jun-11 11:00N 45°51' W 084°31'611.9
2018-Jun-11 10:30N 45°51' W 084°23'611.9
2018-Jun-11 10:00N 45°51' W 084°14'611.9
2018-Jun-11 09:29N 45°51' W 084°05'  
Track history (hours):
 
Tides and Currents Weather Stations Pressure Air Temp Water Temp Dewpoint Dewpoint Depression Visibility Wind Speed Wind Dir Waves Ship Positions

Mississagi

Last reported at 2018-Jun-20 13:22 UTC. Time now 2018-Jun-21 06:49 UTC.
Position N 44°60' W 085°59'.

Length 189 m; draft 7 m.

Type: Cargo ship. MMSI: 316004940.

Date/timePositionNaut miles runAvg speedWind from/ knotsBaromVisibWave heightAir tempDewpointWater temp
2018-Jun-20 13:22N 44°60' W 085°59'2311.5
2018-Jun-20 11:21N 45°18' W 085°39'411.6
2018-Jun-20 11:00N 45°22' W 085°36'611.6
2018-Jun-20 10:30N 45°26' W 085°31'611.6
2018-Jun-20 10:00N 45°31' W 085°26'611.5
2018-Jun-20 09:30N 45°36' W 085°21'611.6
2018-Jun-20 09:00N 45°40' W 085°16'611.6
2018-Jun-20 08:30N 45°45' W 085°11'510.4
2018-Jun-20 08:00N 45°50' W 085°08'611.4
2018-Jun-20 07:30N 45°50' W 084°60'611.8
2018-Jun-20 07:00N 45°49' W 084°51'611.8
2018-Jun-20 06:30N 45°49' W 084°43'611.4
2018-Jun-20 06:00N 45°51' W 084°35'611.7
2018-Jun-20 05:30N 45°51' W 084°27'711.8
2018-Jun-20 04:56N 45°51' W 084°17'44 3.5
2018-Jun-19 16:16N 45°46' W 083°14'412.7
2018-Jun-19 15:58N 45°42' W 083°13'612.6
2018-Jun-19 15:30N 45°36' W 083°13'612.5
2018-Jun-19 15:00N 45°30' W 083°12'612.4
2018-Jun-19 14:30N 45°24' W 083°10'  
2018-Jun-16 02:49N 45°51' W 084°32'412.2
2018-Jun-16 02:30N 45°50' W 084°38'612.0
2018-Jun-16 01:59N 45°49' W 084°46'612.1
2018-Jun-16 01:30N 45°50' W 084°55'612.2
2018-Jun-16 01:00N 45°50' W 085°03'5 9.5
2018-Jun-16 00:30N 45°47' W 085°09'611.8
2018-Jun-16 00:00N 45°42' W 085°14'612.4
2018-Jun-15 23:30N 45°37' W 085°19'612.2
2018-Jun-15 23:00N 45°32' W 085°25'612.2
2018-Jun-15 22:30N 45°27' W 085°30'612.4
2018-Jun-15 22:00N 45°22' W 085°35'612.2
2018-Jun-15 21:30N 45°18' W 085°40'712.3
2018-Jun-15 20:56N 45°12' W 085°46'512.2
2018-Jun-15 20:30N 45°08' W 085°51'812.1
2018-Jun-15 19:50N 45°01' W 085°57'  
2018-Jun-11 18:46N 44°60' W 085°59'2211.7
2018-Jun-11 16:52N 45°18' W 085°40'411.8
2018-Jun-11 16:30N 45°21' W 085°36'611.8
2018-Jun-11 16:00N 45°26' W 085°31'611.7
2018-Jun-11 15:30N 45°31' W 085°26'611.7
2018-Jun-11 15:00N 45°35' W 085°21'611.6
2018-Jun-11 14:30N 45°40' W 085°16'611.6
2018-Jun-11 14:00N 45°44' W 085°11'3 6.7
2018-Jun-11 13:30N 45°47' W 085°09'4 8.8
2018-Jun-11 13:00N 45°50' W 085°04'611.6
2018-Jun-11 12:30N 45°50' W 084°55'611.6
2018-Jun-11 12:00N 45°49' W 084°47'510.9
2018-Jun-11 11:30N 45°50' W 084°39'611.4
2018-Jun-11 11:00N 45°51' W 084°31'611.9
2018-Jun-11 10:30N 45°51' W 084°23'611.9
2018-Jun-11 10:00N 45°51' W 084°14'611.9
2018-Jun-11 09:29N 45°51' W 084°05'  

Dump ship's entire track history